sensor_id;sensor_type;location;lat;lon;timestamp;temperature;humidity
4962;DHT22;2496;52.468;13.342;2023-03-01T00:02:13;1.70;99.90
4962;DHT22;2496;52.468;13.342;2023-03-01T00:04:40;1.70;99.90
4962;DHT22;2496;52.468;13.342;2023-03-01T00:07:07;1.70;99.90
4962;DHT22;2496;52.468;13.342;2023-03-01T00:09:36;1.70;99.90
4962;DHT22;2496;52.468;13.342;2023-03-01T00:12:04;1.70;99.90
4962;DHT22;2496;52.468;13.342;2023-03-01T00:14:31;1.70;99.90
4962;DHT22;2496;52.468;13.342;2023-03-01T00:16:59;1.70;99.90
4962;DHT22;2496;52.468;13.342;2023-03-01T00:19:26;1.70;99.90
4962;DHT22;2496;52.468;13.342;2023-03-01T00:21:53;1.70;99.90
4962;DHT22;2496;52.468;13.342;2023-03-01T00:24:20;1.70;99.90
4962;DHT22;2496;52.468;13.342;2023-03-01T00:26:48;1.70;99.90
4962;DHT22;2496;52.468;13.342;2023-03-01T00:29:15;1.70;99.90
4962;DHT22;2496;52.468;13.342;2023-03-01T00:31:42;1.70;99.90
4962;DHT22;2496;52.468;13.342;2023-03-01T00:34:09;1.70;99.90
4962;DHT22;2496;52.468;13.342;2023-03-01T00:36:37;1.70;99.90
4962;DHT22;2496;52.468;13.342;2023-03-01T00:39:07;1.70;99.90
4962;DHT22;2496;52.468;13.342;2023-03-01T00:41:34;1.70;99.90
4962;DHT22;2496;52.468;13.342;2023-03-01T00:44:03;1.70;99.90
4962;DHT22;2496;52.468;13.342;2023-03-01T00:46:30;1.70;99.90
4962;DHT22;2496;52.468;13.342;2023-03-01T00:48:57;1.60;99.90
4962;DHT22;2496;52.468;13.342;2023-03-01T00:51:26;1.60;99.90
4962;DHT22;2496;52.468;13.342;2023-03-01T00:53:54;1.60;99.90
4962;DHT22;2496;52.468;13.342;2023-03-01T00:56:22;1.60;99.90
4962;DHT22;2496;52.468;13.342;2023-03-01T00:58:50;1.60;99.90
4962;DHT22;2496;52.468;13.342;2023-03-01T01:01:20;1.60;99.90
4962;DHT22;2496;52.468;13.342;2023-03-01T01:03:50;1.60;99.90
4962;DHT22;2496;52.468;13.342;2023-03-01T01:06:19;1.60;99.90
4962;DHT22;2496;52.468;13.342;2023-03-01T01:08:46;1.60;99.90
4962;DHT22;2496;52.468;13.342;2023-03-01T01:11:13;1.60;99.90
4962;DHT22;2496;52.468;13.342;2023-03-01T01:13:41;1.50;99.90
4962;DHT22;2496;52.468;13.342;2023-03-01T01:16:08;1.50;99.90
4962;DHT22;2496;52.468;13.342;2023-03-01T01:18:37;1.50;99.90
4962;DHT22;2496;52.468;13.342;2023-03-01T01:21:05;1.50;99.90
4962;DHT22;2496;52.468;13.342;2023-03-01T01:23:32;1.50;99.90
4962;DHT22;2496;52.468;13.342;2023-03-01T01:26:03;1.50;99.90
4962;DHT22;2496;52.468;13.342;2023-03-01T01:28:31;1.50;99.90
4962;DHT22;2496;52.468;13.342;2023-03-01T01:30:58;1.50;99.90
4962;DHT22;2496;52.468;13.342;2023-03-01T01:33:26;1.50;99.90
4962;DHT22;2496;52.468;13.342;2023-03-01T01:35:54;1.50;99.90
4962;DHT22;2496;52.468;13.342;2023-03-01T01:38:21;1.50;99.90
4962;DHT22;2496;52.468;13.342;2023-03-01T01:40:49;1.50;99.90
4962;DHT22;2496;52.468;13.342;2023-03-01T01:43:22;1.50;99.90
4962;DHT22;2496;52.468;13.342;2023-03-01T01:45:49;1.50;99.90
4962;DHT22;2496;52.468;13.342;2023-03-01T01:48:19;1.50;99.90
4962;DHT22;2496;52.468;13.342;2023-03-01T01:50:54;1.50;99.90
4962;DHT22;2496;52.468;13.342;2023-03-01T01:53:24;1.50;99.90
4962;DHT22;2496;52.468;13.342;2023-03-01T01:55:54;1.40;99.90
4962;DHT22;2496;52.468;13.342;2023-03-01T01:58:24;1.50;99.90
4962;DHT22;2496;52.468;13.342;2023-03-01T02:00:53;1.40;99.90
4962;DHT22;2496;52.468;13.342;2023-03-01T02:03:24;1.40;99.90
4962;DHT22;2496;52.468;13.342;2023-03-01T02:05:58;1.40;99.90
4962;DHT22;2496;52.468;13.342;2023-03-01T02:08:30;1.40;99.90
4962;DHT22;2496;52.468;13.342;2023-03-01T02:10:59;1.30;99.90
4962;DHT22;2496;52.468;13.342;2023-03-01T02:13:26;1.30;99.90
4962;DHT22;2496;52.468;13.342;2023-03-01T02:15:53;1.20;99.90
4962;DHT22;2496;52.468;13.342;2023-03-01T02:18:22;1.20;99.90
4962;DHT22;2496;52.468;13.342;2023-03-01T02:21:01;1.20;99.90
4962;DHT22;2496;52.468;13.342;2023-03-01T02:23:33;1.20;99.90
4962;DHT22;2496;52.468;13.342;2023-03-01T02:26:06;1.20;99.90
4962;DHT22;2496;52.468;13.342;2023-03-01T02:28:36;1.20;99.90
4962;DHT22;2496;52.468;13.342;2023-03-01T02:31:05;1.20;99.90
4962;DHT22;2496;52.468;13.342;2023-03-01T02:33:51;1.20;99.90
4962;DHT22;2496;52.468;13.342;2023-03-01T02:36:22;1.10;99.90
4962;DHT22;2496;52.468;13.342;2023-03-01T02:38:51;1.10;99.90
4962;DHT22;2496;52.468;13.342;2023-03-01T02:41:20;1.10;99.90
4962;DHT22;2496;52.468;13.342;2023-03-01T02:43:50;1.10;99.90
4962;DHT22;2496;52.468;13.342;2023-03-01T02:46:19;1.10;99.90
4962;DHT22;2496;52.468;13.342;2023-03-01T02:48:48;1.10;99.90
4962;DHT22;2496;52.468;13.342;2023-03-01T02:51:38;1.10;99.90
4962;DHT22;2496;52.468;13.342;2023-03-01T02:54:15;1.10;99.90
4962;DHT22;2496;52.468;13.342;2023-03-01T02:56:45;1.10;99.90
4962;DHT22;2496;52.468;13.342;2023-03-01T02:59:18;1.00;99.90
4962;DHT22;2496;52.468;13.342;2023-03-01T03:01:45;1.00;99.90
4962;DHT22;2496;52.468;13.342;2023-03-01T03:04:15;0.90;99.90
4962;DHT22;2496;52.468;13.342;2023-03-01T03:06:43;0.90;99.90
4962;DHT22;2496;52.468;13.342;2023-03-01T03:09:12;0.90;99.90
4962;DHT22;2496;52.468;13.342;2023-03-01T03:11:40;0.80;99.90
4962;DHT22;2496;52.468;13.342;2023-03-01T03:14:09;0.80;99.90
4962;DHT22;2496;52.468;13.342;2023-03-01T03:16:41;0.80;99.90
4962;DHT22;2496;52.468;13.342;2023-03-01T03:19:08;0.80;99.90
4962;DHT22;2496;52.468;13.342;2023-03-01T03:21:36;0.80;99.90
4962;DHT22;2496;52.468;13.342;2023-03-01T03:24:03;0.80;99.90
4962;DHT22;2496;52.468;13.342;2023-03-01T03:26:31;0.80;99.90
4962;DHT22;2496;52.468;13.342;2023-03-01T03:28:58;0.80;99.90
4962;DHT22;2496;52.468;13.342;2023-03-01T03:31:25;0.80;99.90
4962;DHT22;2496;52.468;13.342;2023-03-01T03:33:53;0.80;99.90
4962;DHT22;2496;52.468;13.342;2023-03-01T03:36:23;0.80;99.90
4962;DHT22;2496;52.468;13.342;2023-03-01T03:38:50;0.80;99.90
4962;DHT22;2496;52.468;13.342;2023-03-01T03:41:18;0.80;99.90
4962;DHT22;2496;52.468;13.342;2023-03-01T03:43:45;0.80;99.90
4962;DHT22;2496;52.468;13.342;2023-03-01T03:46:12;0.80;99.90
4962;DHT22;2496;52.468;13.342;2023-03-01T03:48:42;0.70;99.90
4962;DHT22;2496;52.468;13.342;2023-03-01T03:51:12;0.70;99.90
4962;DHT22;2496;52.468;13.342;2023-03-01T03:53:40;0.70;99.90
4962;DHT22;2496;52.468;13.342;2023-03-01T03:56:07;0.70;99.90
4962;DHT22;2496;52.468;13.342;2023-03-01T03:58:35;0.70;99.90
4962;DHT22;2496;52.468;13.342;2023-03-01T04:01:02;0.70;99.90
4962;DHT22;2496;52.468;13.342;2023-03-01T04:03:30;0.70;99.90
4962;DHT22;2496;52.468;13.342;2023-03-01T04:05:58;0.70;99.90
4962;DHT22;2496;52.468;13.342;2023-03-01T04:08:27;0.70;99.90
4962;DHT22;2496;52.468;13.342;2023-03-01T04:10:58;0.60;99.90
4962;DHT22;2496;52.468;13.342;2023-03-01T04:13:26;0.60;99.90
4962;DHT22;2496;52.468;13.342;2023-03-01T04:15:53;0.60;99.90
4962;DHT22;2496;52.468;13.342;2023-03-01T04:18:22;0.60;99.90
4962;DHT22;2496;52.468;13.342;2023-03-01T04:20:50;0.60;99.90
4962;DHT22;2496;52.468;13.342;2023-03-01T04:23:21;0.60;99.90
4962;DHT22;2496;52.468;13.342;2023-03-01T04:25:51;0.60;99.90
4962;DHT22;2496;52.468;13.342;2023-03-01T04:28:21;0.60;99.90
4962;DHT22;2496;52.468;13.342;2023-03-01T04:30:50;0.50;99.90
4962;DHT22;2496;52.468;13.342;2023-03-01T04:33:17;0.50;99.90
4962;DHT22;2496;52.468;13.342;2023-03-01T04:35:45;0.50;99.90
4962;DHT22;2496;52.468;13.342;2023-03-01T04:38:15;0.50;99.90
4962;DHT22;2496;52.468;13.342;2023-03-01T04:40:42;0.50;99.90
4962;DHT22;2496;52.468;13.342;2023-03-01T04:43:12;0.50;99.90
4962;DHT22;2496;52.468;13.342;2023-03-01T04:45:40;0.50;99.90
4962;DHT22;2496;52.468;13.342;2023-03-01T04:48:07;0.50;99.90
4962;DHT22;2496;52.468;13.342;2023-03-01T04:50:35;0.40;99.90
4962;DHT22;2496;52.468;13.342;2023-03-01T04:53:02;0.40;99.90
4962;DHT22;2496;52.468;13.342;2023-03-01T04:55:29;0.40;99.90
4962;DHT22;2496;52.468;13.342;2023-03-01T04:57:57;0.40;99.90
4962;DHT22;2496;52.468;13.342;2023-03-01T05:00:25;0.40;99.90
4962;DHT22;2496;52.468;13.342;2023-03-01T05:02:54;0.40;99.90
4962;DHT22;2496;52.468;13.342;2023-03-01T05:05:25;0.40;99.90
4962;DHT22;2496;52.468;13.342;2023-03-01T05:07:54;0.40;99.90
4962;DHT22;2496;52.468;13.342;2023-03-01T05:10:22;0.40;99.90
4962;DHT22;2496;52.468;13.342;2023-03-01T05:12:50;0.40;99.90
4962;DHT22;2496;52.468;13.342;2023-03-01T05:15:19;0.30;99.90
4962;DHT22;2496;52.468;13.342;2023-03-01T05:17:48;0.30;99.90
4962;DHT22;2496;52.468;13.342;2023-03-01T05:20:16;0.30;99.90
4962;DHT22;2496;52.468;13.342;2023-03-01T05:22:43;0.30;99.90
4962;DHT22;2496;52.468;13.342;2023-03-01T05:25:10;0.30;99.90
4962;DHT22;2496;52.468;13.342;2023-03-01T05:27:39;0.30;99.90
4962;DHT22;2496;52.468;13.342;2023-03-01T05:30:09;0.30;99.90
4962;DHT22;2496;52.468;13.342;2023-03-01T05:32:45;0.20;99.90
4962;DHT22;2496;52.468;13.342;2023-03-01T05:35:15;0.20;99.90
4962;DHT22;2496;52.468;13.342;2023-03-01T05:37:44;0.20;99.90
4962;DHT22;2496;52.468;13.342;2023-03-01T05:40:13;0.10;99.90
4962;DHT22;2496;52.468;13.342;2023-03-01T05:42:46;0.10;99.90
4962;DHT22;2496;52.468;13.342;2023-03-01T05:45:15;0.20;99.90
4962;DHT22;2496;52.468;13.342;2023-03-01T05:47:44;0.10;99.90
4962;DHT22;2496;52.468;13.342;2023-03-01T05:50:15;0.10;99.90
4962;DHT22;2496;52.468;13.342;2023-03-01T05:52:46;0.10;99.90
4962;DHT22;2496;52.468;13.342;2023-03-01T05:55:15;0.10;99.90
4962;DHT22;2496;52.468;13.342;2023-03-01T05:57:43;0.10;99.90
4962;DHT22;2496;52.468;13.342;2023-03-01T06:00:12;0.10;99.90
4962;DHT22;2496;52.468;13.342;2023-03-01T06:02:39;0.10;99.90
4962;DHT22;2496;52.468;13.342;2023-03-01T06:05:08;0.10;99.90
4962;DHT22;2496;52.468;13.342;2023-03-01T06:07:37;0.10;99.90
4962;DHT22;2496;52.468;13.342;2023-03-01T06:10:06;0.10;99.90
4962;DHT22;2496;52.468;13.342;2023-03-01T06:12:35;0.10;99.90
4962;DHT22;2496;52.468;13.342;2023-03-01T06:15:03;0.10;99.90
4962;DHT22;2496;52.468;13.342;2023-03-01T06:17:32;0.10;99.90
4962;DHT22;2496;52.468;13.342;2023-03-01T06:20:03;0.20;99.90
4962;DHT22;2496;52.468;13.342;2023-03-01T06:22:30;0.20;99.90
4962;DHT22;2496;52.468;13.342;2023-03-01T06:24:58;0.20;99.90
4962;DHT22;2496;52.468;13.342;2023-03-01T06:27:26;0.30;99.90
4962;DHT22;2496;52.468;13.342;2023-03-01T06:29:53;0.30;99.90
4962;DHT22;2496;52.468;13.342;2023-03-01T06:32:20;0.30;99.90
4962;DHT22;2496;52.468;13.342;2023-03-01T06:34:47;0.30;99.90
4962;DHT22;2496;52.468;13.342;2023-03-01T06:37:14;0.40;99.90
4962;DHT22;2496;52.468;13.342;2023-03-01T06:39:41;0.40;99.90
4962;DHT22;2496;52.468;13.342;2023-03-01T06:42:10;0.40;99.90
4962;DHT22;2496;52.468;13.342;2023-03-01T06:44:37;0.40;99.90
4962;DHT22;2496;52.468;13.342;2023-03-01T06:47:04;0.50;99.90
4962;DHT22;2496;52.468;13.342;2023-03-01T06:49:31;0.50;99.90
4962;DHT22;2496;52.468;13.342;2023-03-01T06:51:58;0.60;99.90
4962;DHT22;2496;52.468;13.342;2023-03-01T06:54:26;0.60;99.90
4962;DHT22;2496;52.468;13.342;2023-03-01T06:56:53;0.60;99.90
4962;DHT22;2496;52.468;13.342;2023-03-01T06:59:21;0.70;99.90
4962;DHT22;2496;52.468;13.342;2023-03-01T07:01:48;0.80;99.90
4962;DHT22;2496;52.468;13.342;2023-03-01T07:04:15;0.80;99.90
4962;DHT22;2496;52.468;13.342;2023-03-01T07:06:43;0.80;99.90
4962;DHT22;2496;52.468;13.342;2023-03-01T07:09:10;0.90;99.90
4962;DHT22;2496;52.468;13.342;2023-03-01T07:11:37;1.00;99.90
4962;DHT22;2496;52.468;13.342;2023-03-01T07:14:05;1.10;99.90
4962;DHT22;2496;52.468;13.342;2023-03-01T07:16:34;1.10;99.90
4962;DHT22;2496;52.468;13.342;2023-03-01T07:19:01;1.10;99.90
4962;DHT22;2496;52.468;13.342;2023-03-01T07:21:28;1.20;99.90
4962;DHT22;2496;52.468;13.342;2023-03-01T07:23:55;1.20;99.90
4962;DHT22;2496;52.468;13.342;2023-03-01T07:26:22;1.30;99.90
4962;DHT22;2496;52.468;13.342;2023-03-01T07:28:49;1.30;99.90
4962;DHT22;2496;52.468;13.342;2023-03-01T07:31:16;1.40;99.90
4962;DHT22;2496;52.468;13.342;2023-03-01T07:33:45;1.40;99.90
4962;DHT22;2496;52.468;13.342;2023-03-01T07:36:12;1.50;99.90
4962;DHT22;2496;52.468;13.342;2023-03-01T07:38:40;1.60;99.90
4962;DHT22;2496;52.468;13.342;2023-03-01T07:41:07;1.70;99.90
4962;DHT22;2496;52.468;13.342;2023-03-01T07:43:34;1.70;99.90
4962;DHT22;2496;52.468;13.342;2023-03-01T07:46:01;1.90;99.90
4962;DHT22;2496;52.468;13.342;2023-03-01T07:48:30;2.50;99.90
4962;DHT22;2496;52.468;13.342;2023-03-01T07:51:00;3.50;99.90
4962;DHT22;2496;52.468;13.342;2023-03-01T07:53:27;4.80;99.90
4962;DHT22;2496;52.468;13.342;2023-03-01T07:56:01;5.90;99.90
4962;DHT22;2496;52.468;13.342;2023-03-01T07:58:28;6.70;99.90
4962;DHT22;2496;52.468;13.342;2023-03-01T08:00:55;7.00;99.90
4962;DHT22;2496;52.468;13.342;2023-03-01T08:03:22;7.00;99.00
4962;DHT22;2496;52.468;13.342;2023-03-01T08:05:50;6.70;98.70
4962;DHT22;2496;52.468;13.342;2023-03-01T08:08:18;6.40;99.40
4962;DHT22;2496;52.468;13.342;2023-03-01T08:10:47;6.20;99.30
4962;DHT22;2496;52.468;13.342;2023-03-01T08:13:14;6.10;99.10
4962;DHT22;2496;52.468;13.342;2023-03-01T08:15:41;6.00;99.10
4962;DHT22;2496;52.468;13.342;2023-03-01T08:18:08;5.80;99.50
4962;DHT22;2496;52.468;13.342;2023-03-01T08:20:35;5.60;99.60
4962;DHT22;2496;52.468;13.342;2023-03-01T08:23:02;5.50;99.80
4962;DHT22;2496;52.468;13.342;2023-03-01T08:25:30;5.30;99.20
4962;DHT22;2496;52.468;13.342;2023-03-01T08:27:57;5.20;99.40
4962;DHT22;2496;52.468;13.342;2023-03-01T08:30:24;5.10;99.20
4962;DHT22;2496;52.468;13.342;2023-03-01T08:32:55;5.10;99.20
4962;DHT22;2496;52.468;13.342;2023-03-01T08:35:22;5.00;99.10
4962;DHT22;2496;52.468;13.342;2023-03-01T08:37:49;4.90;98.80
4962;DHT22;2496;52.468;13.342;2023-03-01T08:40:16;4.90;98.60
4962;DHT22;2496;52.468;13.342;2023-03-01T08:42:44;4.90;98.30
4962;DHT22;2496;52.468;13.342;2023-03-01T08:45:12;4.80;98.00
4962;DHT22;2496;52.468;13.342;2023-03-01T08:47:39;4.80;98.50
4962;DHT22;2496;52.468;13.342;2023-03-01T08:50:07;4.80;98.10
4962;DHT22;2496;52.468;13.342;2023-03-01T08:52:35;4.80;98.20
4962;DHT22;2496;52.468;13.342;2023-03-01T08:55:02;4.80;98.00
4962;DHT22;2496;52.468;13.342;2023-03-01T08:57:29;4.90;98.00
4962;DHT22;2496;52.468;13.342;2023-03-01T08:59:58;4.90;97.80
4962;DHT22;2496;52.468;13.342;2023-03-01T09:02:24;5.00;97.70
4962;DHT22;2496;52.468;13.342;2023-03-01T09:04:51;5.10;97.60
4962;DHT22;2496;52.468;13.342;2023-03-01T09:07:19;5.10;97.60
4962;DHT22;2496;52.468;13.342;2023-03-01T09:09:46;5.20;98.00
4962;DHT22;2496;52.468;13.342;2023-03-01T09:12:13;5.40;98.00
4962;DHT22;2496;52.468;13.342;2023-03-01T09:14:42;5.40;95.90
4962;DHT22;2496;52.468;13.342;2023-03-01T09:17:11;5.50;96.80
4962;DHT22;2496;52.468;13.342;2023-03-01T09:19:38;5.70;96.00
4962;DHT22;2496;52.468;13.342;2023-03-01T09:22:07;6.00;96.20
4962;DHT22;2496;52.468;13.342;2023-03-01T09:24:34;6.10;96.10
4962;DHT22;2496;52.468;13.342;2023-03-01T09:27:01;6.20;95.60
4962;DHT22;2496;52.468;13.342;2023-03-01T09:29:28;6.30;95.60
4962;DHT22;2496;52.468;13.342;2023-03-01T09:31:55;6.40;94.40
4962;DHT22;2496;52.468;13.342;2023-03-01T09:34:24;6.20;94.80
4962;DHT22;2496;52.468;13.342;2023-03-01T09:36:51;6.00;95.10
4962;DHT22;2496;52.468;13.342;2023-03-01T09:39:18;5.90;94.90
4962;DHT22;2496;52.468;13.342;2023-03-01T09:41:49;5.70;95.40
4962;DHT22;2496;52.468;13.342;2023-03-01T09:44:26;5.60;94.80
4962;DHT22;2496;52.468;13.342;2023-03-01T09:46:56;5.50;94.60
4962;DHT22;2496;52.468;13.342;2023-03-01T09:49:26;5.50;94.40
4962;DHT22;2496;52.468;13.342;2023-03-01T09:51:59;5.40;94.30
4962;DHT22;2496;52.468;13.342;2023-03-01T09:54:26;5.40;94.10
4962;DHT22;2496;52.468;13.342;2023-03-01T09:57:06;5.50;94.10
4962;DHT22;2496;52.468;13.342;2023-03-01T09:59:42;5.40;95.20
4962;DHT22;2496;52.468;13.342;2023-03-01T10:02:23;5.40;95.60
4962;DHT22;2496;52.468;13.342;2023-03-01T10:04:59;5.50;95.20
4962;DHT22;2496;52.468;13.342;2023-03-01T10:07:41;5.40;95.60
4962;DHT22;2496;52.468;13.342;2023-03-01T10:10:26;5.40;95.20
4962;DHT22;2496;52.468;13.342;2023-03-01T10:12:54;5.50;94.70
4962;DHT22;2496;52.468;13.342;2023-03-01T10:15:28;5.50;93.90
4962;DHT22;2496;52.468;13.342;2023-03-01T10:18:01;5.50;94.60
4962;DHT22;2496;52.468;13.342;2023-03-01T10:20:43;5.60;94.70
4962;DHT22;2496;52.468;13.342;2023-03-01T10:23:13;5.60;94.30
4962;DHT22;2496;52.468;13.342;2023-03-01T10:25:50;5.60;94.00
4962;DHT22;2496;52.468;13.342;2023-03-01T10:28:25;5.60;93.70
4962;DHT22;2496;52.468;13.342;2023-03-01T10:30:53;5.60;93.70
4962;DHT22;2496;52.468;13.342;2023-03-01T10:33:23;5.60;92.40
4962;DHT22;2496;52.468;13.342;2023-03-01T10:35:52;5.60;92.40
4962;DHT22;2496;52.468;13.342;2023-03-01T10:38:20;5.50;93.60
4962;DHT22;2496;52.468;13.342;2023-03-01T10:40:52;5.60;93.50
4962;DHT22;2496;52.468;13.342;2023-03-01T10:43:20;5.60;93.90
4962;DHT22;2496;52.468;13.342;2023-03-01T10:45:48;5.70;92.10
4962;DHT22;2496;52.468;13.342;2023-03-01T10:48:17;5.70;92.20
4962;DHT22;2496;52.468;13.342;2023-03-01T10:50:46;5.60;92.00
4962;DHT22;2496;52.468;13.342;2023-03-01T10:53:29;5.60;92.40
4962;DHT22;2496;52.468;13.342;2023-03-01T10:56:00;5.60;91.60
4962;DHT22;2496;52.468;13.342;2023-03-01T10:58:30;5.70;92.20
4962;DHT22;2496;52.468;13.342;2023-03-01T11:00:59;5.70;92.60
4962;DHT22;2496;52.468;13.342;2023-03-01T11:03:28;5.70;93.00
4962;DHT22;2496;52.468;13.342;2023-03-01T11:06:02;5.80;92.70
4962;DHT22;2496;52.468;13.342;2023-03-01T11:08:39;5.90;93.10
4962;DHT22;2496;52.468;13.342;2023-03-01T11:11:23;6.00;93.00
4962;DHT22;2496;52.468;13.342;2023-03-01T11:13:56;6.00;92.60
4962;DHT22;2496;52.468;13.342;2023-03-01T11:16:29;6.00;91.80
4962;DHT22;2496;52.468;13.342;2023-03-01T11:19:00;6.00;91.40
4962;DHT22;2496;52.468;13.342;2023-03-01T11:21:28;5.90;91.80
4962;DHT22;2496;52.468;13.342;2023-03-01T11:24:00;5.90;91.50
4962;DHT22;2496;52.468;13.342;2023-03-01T11:26:31;5.90;91.30
4962;DHT22;2496;52.468;13.342;2023-03-01T11:29:18;5.90;91.10
4962;DHT22;2496;52.468;13.342;2023-03-01T11:31:48;5.80;91.20
4962;DHT22;2496;52.468;13.342;2023-03-01T11:34:20;5.80;91.10
4962;DHT22;2496;52.468;13.342;2023-03-01T11:36:53;5.80;90.70
4962;DHT22;2496;52.468;13.342;2023-03-01T11:39:28;5.80;90.70
4962;DHT22;2496;52.468;13.342;2023-03-01T11:42:04;5.90;91.20
4962;DHT22;2496;52.468;13.342;2023-03-01T11:44:33;5.90;91.20
4962;DHT22;2496;52.468;13.342;2023-03-01T11:47:28;6.00;91.30
4962;DHT22;2496;52.468;13.342;2023-03-01T11:50:15;6.10;91.40
4962;DHT22;2496;52.468;13.342;2023-03-01T11:52:57;6.20;92.20
4962;DHT22;2496;52.468;13.342;2023-03-01T11:55:40;6.40;91.80
4962;DHT22;2496;52.468;13.342;2023-03-01T11:58:41;6.50;90.90
4962;DHT22;2496;52.468;13.342;2023-03-01T12:01:23;6.70;88.90
4962;DHT22;2496;52.468;13.342;2023-03-01T12:06:50;6.70;87.00
4962;DHT22;2496;52.468;13.342;2023-03-01T12:09:38;6.70;86.30
4962;DHT22;2496;52.468;13.342;2023-03-01T12:12:44;6.80;86.90
4962;DHT22;2496;52.468;13.342;2023-03-01T12:15:31;6.80;84.90
4962;DHT22;2496;52.468;13.342;2023-03-01T12:18:34;6.90;84.20
4962;DHT22;2496;52.468;13.342;2023-03-01T12:21:13;6.90;81.40
4962;DHT22;2496;52.468;13.342;2023-03-01T12:26:56;7.00;82.30
4962;DHT22;2496;52.468;13.342;2023-03-01T12:29:32;7.10;82.30
4962;DHT22;2496;52.468;13.342;2023-03-01T12:32:34;7.10;81.30
4962;DHT22;2496;52.468;13.342;2023-03-01T12:35:15;7.20;81.60
4962;DHT22;2496;52.468;13.342;2023-03-01T12:37:54;7.30;81.70
4962;DHT22;2496;52.468;13.342;2023-03-01T12:40:37;7.40;81.20
4962;DHT22;2496;52.468;13.342;2023-03-01T12:43:20;7.40;79.00
4962;DHT22;2496;52.468;13.342;2023-03-01T12:46:05;7.30;78.30
4962;DHT22;2496;52.468;13.342;2023-03-01T12:48:46;7.30;77.80
4962;DHT22;2496;52.468;13.342;2023-03-01T12:51:20;7.30;78.30
4962;DHT22;2496;52.468;13.342;2023-03-01T12:53:50;7.30;76.50
4962;DHT22;2496;52.468;13.342;2023-03-01T12:56:21;7.30;76.60
4962;DHT22;2496;52.468;13.342;2023-03-01T12:58:57;7.20;76.50
4962;DHT22;2496;52.468;13.342;2023-03-01T13:01:35;7.20;76.20
4962;DHT22;2496;52.468;13.342;2023-03-01T13:04:17;7.20;76.10
4962;DHT22;2496;52.468;13.342;2023-03-01T13:06:54;7.30;78.50
4962;DHT22;2496;52.468;13.342;2023-03-01T13:09:27;7.30;77.10
4962;DHT22;2496;52.468;13.342;2023-03-01T13:11:57;7.30;77.20
4962;DHT22;2496;52.468;13.342;2023-03-01T13:14:45;7.40;77.70
4962;DHT22;2496;52.468;13.342;2023-03-01T13:17:41;7.50;77.40
4962;DHT22;2496;52.468;13.342;2023-03-01T13:20:18;7.50;74.60
4962;DHT22;2496;52.468;13.342;2023-03-01T13:22:46;7.50;74.30
4962;DHT22;2496;52.468;13.342;2023-03-01T13:25:16;7.40;74.80
4962;DHT22;2496;52.468;13.342;2023-03-01T13:27:43;7.40;74.30
4962;DHT22;2496;52.468;13.342;2023-03-01T13:30:44;7.30;75.40
4962;DHT22;2496;52.468;13.342;2023-03-01T13:33:46;7.30;77.30
4962;DHT22;2496;52.468;13.342;2023-03-01T13:39:31;7.40;75.00
4962;DHT22;2496;52.468;13.342;2023-03-01T13:41:59;7.40;74.70
4962;DHT22;2496;52.468;13.342;2023-03-01T13:44:30;7.40;75.10
4962;DHT22;2496;52.468;13.342;2023-03-01T13:47:00;7.40;75.10
4962;DHT22;2496;52.468;13.342;2023-03-01T13:49:42;7.40;74.60
4962;DHT22;2496;52.468;13.342;2023-03-01T13:52:34;7.40;75.20
4962;DHT22;2496;52.468;13.342;2023-03-01T13:55:03;7.40;75.40
4962;DHT22;2496;52.468;13.342;2023-03-01T13:57:34;7.50;78.00
4962;DHT22;2496;52.468;13.342;2023-03-01T14:00:02;7.60;77.80
4962;DHT22;2496;52.468;13.342;2023-03-01T14:02:30;7.70;77.40
4962;DHT22;2496;52.468;13.342;2023-03-01T14:04:59;7.70;71.00
4962;DHT22;2496;52.468;13.342;2023-03-01T14:07:28;7.70;72.40
4962;DHT22;2496;52.468;13.342;2023-03-01T14:09:58;7.70;71.20
4962;DHT22;2496;52.468;13.342;2023-03-01T14:12:36;7.70;70.60
4962;DHT22;2496;52.468;13.342;2023-03-01T14:15:10;7.70;70.30
4962;DHT22;2496;52.468;13.342;2023-03-01T14:17:55;7.70;70.10
4962;DHT22;2496;52.468;13.342;2023-03-01T14:20:28;7.60;70.90
4962;DHT22;2496;52.468;13.342;2023-03-01T14:22:58;7.70;70.10
4962;DHT22;2496;52.468;13.342;2023-03-01T14:25:27;7.70;71.80
4962;DHT22;2496;52.468;13.342;2023-03-01T14:28:02;7.70;71.80
4962;DHT22;2496;52.468;13.342;2023-03-01T14:30:36;7.70;70.80
4962;DHT22;2496;52.468;13.342;2023-03-01T14:33:06;7.70;71.60
4962;DHT22;2496;52.468;13.342;2023-03-01T14:35:52;7.70;71.80
4962;DHT22;2496;52.468;13.342;2023-03-01T14:38:21;7.80;71.50
4962;DHT22;2496;52.468;13.342;2023-03-01T14:40:58;7.80;69.80
4962;DHT22;2496;52.468;13.342;2023-03-01T14:43:25;7.80;71.80
4962;DHT22;2496;52.468;13.342;2023-03-01T14:45:53;7.80;70.70
4962;DHT22;2496;52.468;13.342;2023-03-01T14:48:20;7.80;71.20
4962;DHT22;2496;52.468;13.342;2023-03-01T14:50:51;7.80;71.30
4962;DHT22;2496;52.468;13.342;2023-03-01T14:53:21;7.80;70.40
4962;DHT22;2496;52.468;13.342;2023-03-01T14:55:51;7.80;70.90
4962;DHT22;2496;52.468;13.342;2023-03-01T14:58:21;7.80;73.30
4962;DHT22;2496;52.468;13.342;2023-03-01T15:00:51;7.80;72.40
4962;DHT22;2496;52.468;13.342;2023-03-01T15:03:25;7.90;72.70
4962;DHT22;2496;52.468;13.342;2023-03-01T15:05:54;7.80;72.10
4962;DHT22;2496;52.468;13.342;2023-03-01T15:08:24;7.80;71.90
4962;DHT22;2496;52.468;13.342;2023-03-01T15:11:01;7.80;72.00
4962;DHT22;2496;52.468;13.342;2023-03-01T15:13:31;7.70;71.90
4962;DHT22;2496;52.468;13.342;2023-03-01T15:16:07;7.70;73.50
4962;DHT22;2496;52.468;13.342;2023-03-01T15:18:36;7.70;72.90
4962;DHT22;2496;52.468;13.342;2023-03-01T15:21:14;7.70;73.10
4962;DHT22;2496;52.468;13.342;2023-03-01T15:23:47;7.70;74.20
4962;DHT22;2496;52.468;13.342;2023-03-01T15:26:23;7.60;73.40
4962;DHT22;2496;52.468;13.342;2023-03-01T15:28:52;7.60;73.80
4962;DHT22;2496;52.468;13.342;2023-03-01T15:31:20;7.60;74.60
4962;DHT22;2496;52.468;13.342;2023-03-01T15:33:48;7.60;76.40
4962;DHT22;2496;52.468;13.342;2023-03-01T15:36:36;7.60;77.80
4962;DHT22;2496;52.468;13.342;2023-03-01T15:39:22;7.60;77.80
4962;DHT22;2496;52.468;13.342;2023-03-01T15:41:52;7.60;78.00
4962;DHT22;2496;52.468;13.342;2023-03-01T15:44:26;7.50;79.80
4962;DHT22;2496;52.468;13.342;2023-03-01T15:46:53;7.50;79.50
4962;DHT22;2496;52.468;13.342;2023-03-01T15:49:27;7.60;81.00
4962;DHT22;2496;52.468;13.342;2023-03-01T15:51:59;7.60;80.20
4962;DHT22;2496;52.468;13.342;2023-03-01T15:54:26;7.60;80.80
4962;DHT22;2496;52.468;13.342;2023-03-01T15:56:54;7.50;81.40
4962;DHT22;2496;52.468;13.342;2023-03-01T15:59:22;7.50;81.60
4962;DHT22;2496;52.468;13.342;2023-03-01T16:01:49;7.50;82.00
4962;DHT22;2496;52.468;13.342;2023-03-01T16:04:18;7.50;82.40
4962;DHT22;2496;52.468;13.342;2023-03-01T16:06:49;7.40;82.70
4962;DHT22;2496;52.468;13.342;2023-03-01T16:09:21;7.40;83.10
4962;DHT22;2496;52.468;13.342;2023-03-01T16:11:50;7.40;84.00
4962;DHT22;2496;52.468;13.342;2023-03-01T16:14:17;7.40;84.20
4962;DHT22;2496;52.468;13.342;2023-03-01T16:16:45;7.40;84.60
4962;DHT22;2496;52.468;13.342;2023-03-01T16:19:14;7.30;84.30
4962;DHT22;2496;52.468;13.342;2023-03-01T16:21:41;7.30;84.50
4962;DHT22;2496;52.468;13.342;2023-03-01T16:24:12;7.20;84.60
4962;DHT22;2496;52.468;13.342;2023-03-01T16:26:40;7.20;84.70
4962;DHT22;2496;52.468;13.342;2023-03-01T16:29:08;7.10;84.60
4962;DHT22;2496;52.468;13.342;2023-03-01T16:31:35;7.00;84.80
4962;DHT22;2496;52.468;13.342;2023-03-01T16:34:02;7.00;85.00
4962;DHT22;2496;52.468;13.342;2023-03-01T16:36:29;7.00;85.30